createdAt,value
2018-01-16T00:00:59.494Z,6.31
2018-01-16T00:01:59.476Z,6.34
2018-01-16T00:02:59.459Z,6.31
2018-01-16T00:03:59.485Z,6.27
2018-01-16T00:04:59.419Z,6.28
2018-01-16T00:05:59.392Z,6.31
2018-01-16T00:06:59.370Z,6.30
2018-01-16T00:07:59.348Z,6.28
2018-01-16T00:08:59.330Z,6.36
2018-01-16T00:09:59.306Z,6.36
2018-01-16T00:10:59.284Z,6.37
2018-01-16T00:11:59.261Z,6.48
2018-01-16T00:12:59.242Z,6.43
2018-01-16T00:13:59.219Z,6.51
2018-01-16T00:14:59.203Z,6.58
2018-01-16T00:15:59.179Z,6.54
2018-01-16T00:16:59.166Z,6.52
2018-01-16T00:17:59.139Z,6.61
2018-01-16T00:18:59.115Z,6.67
2018-01-16T00:19:59.096Z,6.59
2018-01-16T00:20:59.075Z,6.64
2018-01-16T00:21:59.053Z,6.66
2018-01-16T00:22:59.035Z,6.69
2018-01-16T00:23:59.016Z,6.67
2018-01-16T00:24:58.989Z,6.66
2018-01-16T00:25:58.969Z,6.64
2018-01-16T00:26:58.952Z,6.69
2018-01-16T00:27:58.927Z,6.61
2018-01-16T00:28:58.906Z,6.66
2018-01-16T00:29:58.897Z,6.62
2018-01-16T00:30:58.861Z,6.71
2018-01-16T00:31:58.841Z,6.71
2018-01-16T00:32:58.832Z,6.67
2018-01-16T00:33:58.798Z,6.66
2018-01-16T00:34:58.779Z,6.70
2018-01-16T00:35:58.756Z,6.71
2018-01-16T00:36:58.739Z,6.73
2018-01-16T00:37:58.716Z,6.76
2018-01-16T00:38:58.695Z,6.85
2018-01-16T00:39:58.676Z,6.84
2018-01-16T00:40:58.663Z,6.74
2018-01-16T00:41:58.633Z,6.76
2018-01-16T00:42:58.609Z,6.80
2018-01-16T00:43:58.588Z,6.73
2018-01-16T00:44:58.577Z,6.76
2018-01-16T00:45:58.545Z,6.80
2018-01-16T00:46:58.526Z,6.76
2018-01-16T00:47:58.505Z,6.73
2018-01-16T00:48:58.486Z,6.74
2018-01-16T00:49:58.465Z,6.80
2018-01-16T00:50:58.440Z,6.77
2018-01-16T00:51:58.417Z,6.80
2018-01-16T00:52:58.397Z,6.81
2018-01-16T00:53:58.378Z,6.85
2018-01-16T00:54:58.354Z,6.81
2018-01-16T00:55:58.335Z,6.76
2018-01-16T00:56:58.316Z,6.74
2018-01-16T00:57:58.296Z,6.73
2018-01-16T00:58:58.274Z,6.74
2018-01-16T00:59:58.252Z,6.79
2018-01-16T01:00:58.235Z,6.79
2018-01-16T01:01:58.213Z,6.76
2018-01-16T01:02:58.185Z,6.73
2018-01-16T01:03:58.169Z,6.80
2018-01-16T01:04:58.150Z,6.74
2018-01-16T01:05:58.127Z,6.76
2018-01-16T01:06:58.105Z,6.70
2018-01-16T01:07:58.135Z,6.73
2018-01-16T01:08:58.065Z,6.71
2018-01-16T01:09:58.038Z,6.71
2018-01-16T01:10:58.025Z,6.73
2018-01-16T01:11:57.998Z,6.69
2018-01-16T01:12:57.975Z,6.74
2018-01-16T01:13:57.956Z,6.73
2018-01-16T01:14:57.934Z,6.71
2018-01-16T01:15:57.911Z,6.67
2018-01-16T01:16:57.893Z,6.64
2018-01-16T01:17:57.873Z,6.61
2018-01-16T01:18:57.849Z,6.61
2018-01-16T01:19:57.829Z,6.56
2018-01-16T01:20:57.806Z,6.54
2018-01-16T01:21:57.785Z,6.48
2018-01-16T01:22:57.770Z,6.54
2018-01-16T01:23:57.742Z,6.49
2018-01-16T01:24:57.723Z,6.54
2018-01-16T01:25:57.704Z,6.48
2018-01-16T01:26:57.679Z,6.49
2018-01-16T01:27:57.663Z,6.52
2018-01-16T01:28:57.640Z,6.46
2018-01-16T01:29:57.618Z,6.44
2018-01-16T01:30:57.595Z,6.41
2018-01-16T01:31:57.576Z,6.46
2018-01-16T01:32:57.555Z,6.41
2018-01-16T01:33:57.536Z,6.41
2018-01-16T01:34:57.515Z,6.41
2018-01-16T01:35:57.490Z,6.46
2018-01-16T01:36:57.475Z,6.48
2018-01-16T01:37:57.452Z,6.37
2018-01-16T01:38:57.427Z,6.37
2018-01-16T01:39:57.405Z,6.46
2018-01-16T01:40:57.389Z,6.37
2018-01-16T01:41:57.364Z,6.41
2018-01-16T01:42:57.345Z,6.43
2018-01-16T01:43:57.324Z,6.46
2018-01-16T01:44:57.300Z,6.37
2018-01-16T01:45:57.284Z,6.41
2018-01-16T01:46:57.255Z,6.37
2018-01-16T01:47:57.236Z,6.43
2018-01-16T01:48:57.212Z,6.48
2018-01-16T01:49:57.196Z,6.37
2018-01-16T01:50:57.172Z,6.40
2018-01-16T01:51:57.150Z,6.43
2018-01-16T01:52:57.132Z,6.46
2018-01-16T01:53:57.108Z,6.37
2018-01-16T01:54:57.085Z,6.38
2018-01-16T01:55:57.065Z,6.38
2018-01-16T01:56:57.055Z,6.38
2018-01-16T01:57:57.021Z,6.37
2018-01-16T01:58:57.007Z,6.33
2018-01-16T01:59:56.982Z,6.31
2018-01-16T02:00:56.961Z,6.33
2018-01-16T02:01:56.944Z,6.25
2018-01-16T02:02:56.915Z,6.28
2018-01-16T02:03:56.896Z,6.25
2018-01-16T02:04:56.875Z,6.31
2018-01-16T02:05:56.853Z,6.30
2018-01-16T02:06:56.830Z,6.17
2018-01-16T02:07:56.816Z,6.22
2018-01-16T02:08:56.792Z,6.31
2018-01-16T02:09:56.775Z,6.11
2018-01-16T02:10:56.745Z,6.37
2018-01-16T02:11:56.726Z,6.12
2018-01-16T02:12:56.709Z,6.33
2018-01-16T02:13:56.686Z,6.21
2018-01-16T02:14:56.663Z,6.14
2018-01-16T02:15:56.646Z,6.30
2018-01-16T02:16:56.629Z,6.19
2018-01-16T02:17:56.611Z,6.30
2018-01-16T02:18:56.576Z,6.17
2018-01-16T02:19:56.562Z,6.34
2018-01-16T02:20:56.536Z,6.28
2018-01-16T02:21:56.515Z,6.14
2018-01-16T02:22:56.496Z,6.34
2018-01-16T02:23:56.483Z,6.30
2018-01-16T02:24:56.451Z,6.17
2018-01-16T02:25:56.432Z,6.18
2018-01-16T02:26:56.410Z,6.17
2018-01-16T02:27:56.389Z,6.18
2018-01-16T02:28:56.367Z,6.17
2018-01-16T02:29:56.350Z,6.18
2018-01-16T02:30:56.325Z,6.14
2018-01-16T02:31:56.305Z,6.09
2018-01-16T02:32:56.286Z,6.03
2018-01-16T02:33:56.262Z,6.04
2018-01-16T02:34:56.242Z,6.12
2018-01-16T02:35:56.220Z,6.03
2018-01-16T02:36:56.198Z,6.01
2018-01-16T02:37:56.186Z,6.08
2018-01-16T02:38:56.158Z,6.04
2018-01-16T02:39:56.134Z,6.00
2018-01-16T02:40:56.116Z,5.99
2018-01-16T02:41:56.095Z,6.01
2018-01-16T02:42:56.076Z,5.96
2018-01-16T02:43:56.055Z,6.04
2018-01-16T02:44:56.032Z,6.01
2018-01-16T02:45:56.011Z,6.01
2018-01-16T02:46:55.987Z,6.03
2018-01-16T02:47:55.966Z,5.97
2018-01-16T02:48:55.944Z,6.03
2018-01-16T02:49:55.930Z,5.93
2018-01-16T02:50:55.903Z,5.97
2018-01-16T02:51:55.881Z,5.97
2018-01-16T02:52:55.864Z,5.97
2018-01-16T02:53:55.842Z,5.94
2018-01-16T02:54:55.816Z,5.91
2018-01-16T02:55:55.794Z,5.93
2018-01-16T02:56:55.775Z,5.96
2018-01-16T02:57:55.757Z,5.93
2018-01-16T02:58:55.733Z,5.91
2018-01-16T02:59:55.713Z,5.86
2018-01-16T03:00:55.689Z,5.85
2018-01-16T03:01:55.678Z,5.81
2018-01-16T03:02:55.653Z,5.79
2018-01-16T03:03:55.625Z,5.79
2018-01-16T03:04:55.606Z,5.72
2018-01-16T03:05:55.589Z,5.68
2018-01-16T03:06:55.564Z,5.71
2018-01-16T03:07:55.543Z,5.67
2018-01-16T03:08:55.525Z,5.65
2018-01-16T03:09:55.501Z,5.68
2018-01-16T03:10:55.479Z,5.61
2018-01-16T03:11:55.467Z,5.60
2018-01-16T03:12:55.436Z,5.72
2018-01-16T03:13:55.415Z,5.60
2018-01-16T03:14:55.397Z,5.60
2018-01-16T03:15:55.379Z,5.63
2018-01-16T03:16:55.357Z,5.61
2018-01-16T03:17:55.331Z,5.68
2018-01-16T03:18:55.310Z,5.60
2018-01-16T03:19:55.295Z,5.64
2018-01-16T03:20:55.267Z,5.68
2018-01-16T03:21:55.246Z,5.71
2018-01-16T03:22:55.224Z,5.64
2018-01-16T03:23:55.203Z,5.61
2018-01-16T03:24:55.182Z,5.75
2018-01-16T03:25:55.162Z,5.64
2018-01-16T03:26:55.146Z,5.61
2018-01-16T03:27:55.120Z,5.64
2018-01-16T03:28:55.095Z,5.61
2018-01-16T03:29:55.078Z,5.63
2018-01-16T03:30:55.058Z,5.65
2018-01-16T03:31:55.032Z,5.61
2018-01-16T03:32:55.009Z,5.64
2018-01-16T03:33:54.989Z,5.61
2018-01-16T03:34:54.966Z,5.64
2018-01-16T03:35:54.946Z,5.65
2018-01-16T03:36:54.926Z,5.67
2018-01-16T03:37:54.905Z,5.67
2018-01-16T03:38:54.884Z,5.68
2018-01-16T03:39:54.860Z,5.60
2018-01-16T03:40:54.841Z,5.61
2018-01-16T03:41:54.818Z,5.64
2018-01-16T03:42:54.794Z,5.67
2018-01-16T03:43:54.776Z,5.71
2018-01-16T03:44:54.757Z,5.65
2018-01-16T03:45:54.736Z,5.61
2018-01-16T03:46:54.715Z,5.61
2018-01-16T03:47:54.692Z,5.58
2018-01-16T03:48:54.676Z,5.67
2018-01-16T03:49:54.646Z,5.71
2018-01-16T03:50:54.626Z,5.71
2018-01-16T03:51:54.604Z,5.64
2018-01-16T03:52:54.585Z,5.67
2018-01-16T03:53:54.565Z,5.74
2018-01-16T03:54:54.544Z,5.72
2018-01-16T03:55:54.517Z,5.72
2018-01-16T03:56:54.496Z,5.72
2018-01-16T03:57:54.477Z,5.76
2018-01-16T03:58:54.457Z,5.72
2018-01-16T03:59:54.436Z,5.72
2018-01-16T04:00:54.414Z,5.72
2018-01-16T04:01:54.390Z,5.82
2018-01-16T04:02:54.367Z,5.82
2018-01-16T04:03:54.350Z,5.79
2018-01-16T04:04:54.330Z,5.67
2018-01-16T04:05:54.307Z,5.71
2018-01-16T04:06:54.282Z,5.68
2018-01-16T04:07:54.264Z,5.72
2018-01-16T04:08:54.241Z,5.82
2018-01-16T04:09:54.222Z,5.74
2018-01-16T04:10:54.199Z,5.74
2018-01-16T04:11:54.176Z,5.71
2018-01-16T04:12:54.156Z,5.82
2018-01-16T04:13:54.136Z,5.79
2018-01-16T04:14:54.112Z,5.81
2018-01-16T04:15:54.098Z,5.81
2018-01-16T04:16:54.068Z,5.89
2018-01-16T04:17:54.046Z,5.83
2018-01-16T04:18:54.026Z,5.81
2018-01-16T04:19:54.001Z,5.81
2018-01-16T04:20:53.980Z,5.89
2018-01-16T04:21:53.962Z,5.79
2018-01-16T04:22:53.942Z,5.93
2018-01-16T04:23:53.916Z,5.91
2018-01-16T04:24:53.902Z,5.94
2018-01-16T04:25:53.876Z,5.94
2018-01-16T04:26:53.854Z,5.82
2018-01-16T04:27:53.831Z,5.86
2018-01-16T04:28:53.816Z,5.96
2018-01-16T04:29:53.795Z,5.90
2018-01-16T04:30:53.766Z,5.90
2018-01-16T04:31:53.746Z,5.96
2018-01-16T04:32:53.724Z,5.94
2018-01-16T04:33:53.706Z,5.94
2018-01-16T04:34:53.682Z,5.93
2018-01-16T04:35:53.660Z,5.91
2018-01-16T04:36:53.641Z,5.86
2018-01-16T04:37:53.621Z,5.89
2018-01-16T04:38:53.597Z,5.96
2018-01-16T04:39:53.573Z,5.91
2018-01-16T04:40:53.558Z,5.79
2018-01-16T04:41:53.533Z,5.86
2018-01-16T04:42:53.509Z,5.83
2018-01-16T04:43:53.492Z,5.81
2018-01-16T04:44:53.465Z,5.81
2018-01-16T04:45:53.446Z,5.79
2018-01-16T04:46:53.422Z,5.79
2018-01-16T04:47:53.403Z,5.78
2018-01-16T04:48:53.383Z,5.79
2018-01-16T04:49:53.360Z,5.82
2018-01-16T04:50:53.335Z,5.72
2018-01-16T04:51:53.315Z,5.78
2018-01-16T04:52:53.295Z,5.75
2018-01-16T04:53:53.270Z,5.75
2018-01-16T04:54:53.249Z,5.67
2018-01-16T04:55:53.234Z,5.65
2018-01-16T04:56:53.206Z,5.64
2018-01-16T04:57:53.186Z,5.58
2018-01-16T04:58:53.167Z,5.61
2018-01-16T04:59:53.153Z,5.53
2018-01-16T05:00:53.120Z,5.38
2018-01-16T05:01:53.109Z,5.48
2018-01-16T05:02:53.087Z,5.38
2018-01-16T05:03:53.057Z,5.35
2018-01-16T05:04:53.033Z,5.43
2018-01-16T05:05:53.017Z,5.42
2018-01-16T05:06:53.005Z,5.42
2018-01-16T05:07:52.970Z,5.42
2018-01-16T05:08:52.955Z,5.39
2018-01-16T05:09:52.926Z,5.33
2018-01-16T05:10:52.907Z,5.36
2018-01-16T05:11:52.884Z,5.35
2018-01-16T05:12:52.866Z,5.31
2018-01-16T05:13:52.844Z,5.33
2018-01-16T05:14:52.819Z,5.39
2018-01-16T05:15:52.803Z,5.38
2018-01-16T05:16:52.779Z,5.36
2018-01-16T05:17:52.762Z,5.35
2018-01-16T05:18:52.732Z,5.43
2018-01-16T05:19:52.717Z,5.33
2018-01-16T05:20:52.693Z,5.38
2018-01-16T05:21:52.709Z,5.36
2018-01-16T05:22:52.652Z,5.43
2018-01-16T05:23:52.630Z,5.39
2018-01-16T05:24:52.603Z,5.39
2018-01-16T05:25:52.586Z,5.43
2018-01-16T05:26:52.566Z,5.46
2018-01-16T05:27:52.546Z,5.40
2018-01-16T05:28:52.524Z,5.42
2018-01-16T05:29:52.497Z,5.49
2018-01-16T05:30:52.475Z,5.45
2018-01-16T05:31:52.456Z,5.42
2018-01-16T05:32:52.433Z,5.42
2018-01-16T05:33:52.412Z,5.42
2018-01-16T05:34:52.387Z,5.33
2018-01-16T05:35:52.368Z,5.45
2018-01-16T05:36:52.344Z,5.48
2018-01-16T05:37:52.323Z,5.42
2018-01-16T05:38:52.304Z,5.45
2018-01-16T05:39:52.287Z,5.38
2018-01-16T05:40:52.263Z,5.38
2018-01-16T05:41:52.240Z,5.27
2018-01-16T05:42:52.216Z,5.31
2018-01-16T05:43:52.193Z,5.30
2018-01-16T05:44:52.176Z,5.27
2018-01-16T05:45:52.161Z,5.27
2018-01-16T05:46:52.129Z,5.28
2018-01-16T05:47:52.116Z,5.31
2018-01-16T05:48:52.086Z,5.27
2018-01-16T05:49:52.075Z,5.40
2018-01-16T05:50:52.043Z,5.38
2018-01-16T05:51:52.024Z,5.38
2018-01-16T05:52:52.003Z,5.39
2018-01-16T05:53:51.985Z,5.46
2018-01-16T05:54:51.960Z,5.39
2018-01-16T05:55:51.935Z,5.57
2018-01-16T05:56:51.914Z,5.63
2018-01-16T05:57:51.895Z,5.51
2018-01-16T05:58:51.881Z,5.53
2018-01-16T05:59:51.852Z,5.49
2018-01-16T06:00:51.828Z,5.51
2018-01-16T06:01:51.804Z,5.56
2018-01-16T06:02:51.787Z,5.57
2018-01-16T06:03:51.764Z,5.53
2018-01-16T06:04:51.797Z,5.63
2018-01-16T06:05:51.743Z,5.56
2018-01-16T06:06:51.700Z,5.67
2018-01-16T06:07:51.678Z,5.60
2018-01-16T06:08:51.655Z,5.68
2018-01-16T06:09:51.635Z,5.64
2018-01-16T06:10:51.614Z,5.64
2018-01-16T06:11:51.590Z,5.67
2018-01-16T06:12:51.572Z,5.72
2018-01-16T06:13:51.554Z,5.64
2018-01-16T06:14:51.529Z,5.60
2018-01-16T06:15:51.508Z,5.65
2018-01-16T06:16:51.481Z,5.65
2018-01-16T06:17:51.465Z,5.68
2018-01-16T06:18:51.442Z,5.63
2018-01-16T06:19:51.422Z,5.72
2018-01-16T06:20:51.398Z,5.72
2018-01-16T06:21:51.376Z,5.82
2018-01-16T06:22:51.352Z,5.71
2018-01-16T06:23:51.336Z,5.76
2018-01-16T06:24:51.317Z,5.74
2018-01-16T06:25:51.293Z,5.79
2018-01-16T06:26:51.272Z,5.81
2018-01-16T06:27:51.256Z,5.86
2018-01-16T06:28:51.225Z,5.81
2018-01-16T06:29:51.204Z,5.83
2018-01-16T06:30:51.185Z,5.86
2018-01-16T06:31:51.169Z,5.78
2018-01-16T06:32:51.145Z,5.82
2018-01-16T06:33:51.123Z,5.82
2018-01-16T06:34:51.099Z,5.86
2018-01-16T06:35:51.075Z,5.85
2018-01-16T06:36:51.056Z,5.89
2018-01-16T06:37:51.036Z,5.86
2018-01-16T06:38:51.021Z,5.78
2018-01-16T06:39:50.995Z,5.79
2018-01-16T06:40:50.968Z,5.89
2018-01-16T06:41:50.949Z,5.90
2018-01-16T06:42:50.925Z,5.93
2018-01-16T06:43:50.914Z,5.86
2018-01-16T06:44:50.884Z,5.85
2018-01-16T06:45:50.868Z,5.82
2018-01-16T06:46:50.842Z,5.89
2018-01-16T06:47:50.828Z,5.94
2018-01-16T06:48:50.795Z,5.91
2018-01-16T06:49:50.778Z,5.86
2018-01-16T06:50:50.756Z,5.94
2018-01-16T06:51:50.733Z,5.94
2018-01-16T06:52:50.714Z,5.91
2018-01-16T06:53:50.694Z,5.91
2018-01-16T06:54:50.670Z,5.91
2018-01-16T06:55:50.648Z,5.93
2018-01-16T06:56:50.626Z,6.03
2018-01-16T06:57:50.609Z,5.94
2018-01-16T06:58:50.583Z,5.93
2018-01-16T06:59:50.565Z,5.93
2018-01-16T07:00:50.541Z,5.93
2018-01-16T07:01:50.524Z,5.93
2018-01-16T07:02:50.503Z,5.96
2018-01-16T07:03:50.479Z,5.91
2018-01-16T07:04:50.464Z,5.94
2018-01-16T07:05:50.436Z,5.96
2018-01-16T07:06:50.413Z,5.96
2018-01-16T07:07:50.391Z,5.90
2018-01-16T07:08:50.374Z,5.90
2018-01-16T07:09:50.350Z,5.91
2018-01-16T07:10:50.326Z,5.91
2018-01-16T07:11:50.305Z,5.97
2018-01-16T07:12:50.286Z,6.01
2018-01-16T07:13:50.265Z,6.14
2018-01-16T07:14:50.241Z,6.03
2018-01-16T07:15:50.226Z,6.08
2018-01-16T07:16:50.208Z,6.01
2018-01-16T07:17:50.177Z,6.06
2018-01-16T07:18:50.156Z,6.06
2018-01-16T07:19:50.136Z,6.04
2018-01-16T07:20:50.115Z,6.03
2018-01-16T07:21:50.108Z,6.08
2018-01-16T07:22:50.075Z,6.01
2018-01-16T07:23:50.058Z,6.08
2018-01-16T07:24:50.026Z,6.08
2018-01-16T07:25:50.007Z,6.00
2018-01-16T07:26:49.985Z,5.99
2018-01-16T07:27:49.963Z,5.97
2018-01-16T07:28:49.942Z,5.99
2018-01-16T07:29:49.921Z,6.08
2018-01-16T07:30:49.920Z,5.94
2018-01-16T07:31:49.876Z,5.99
2018-01-16T07:32:49.865Z,6.06
2018-01-16T07:33:49.841Z,6.06
2018-01-16T07:34:49.816Z,6.04
2018-01-16T07:35:49.796Z,5.97
2018-01-16T07:36:49.774Z,6.00
2018-01-16T07:37:49.750Z,6.14
2018-01-16T07:38:49.730Z,6.03
2018-01-16T07:39:49.707Z,6.01
2018-01-16T07:40:49.695Z,6.04
2018-01-16T07:41:49.666Z,5.99
2018-01-16T07:42:49.645Z,5.99
2018-01-16T07:43:49.623Z,5.96
2018-01-16T07:44:49.602Z,5.94
2018-01-16T07:45:49.582Z,5.90
2018-01-16T07:46:49.561Z,5.99
2018-01-16T07:47:49.536Z,6.00
2018-01-16T07:48:49.518Z,5.93
2018-01-16T07:49:49.504Z,5.96
2018-01-16T07:50:49.472Z,5.94
2018-01-16T07:51:49.459Z,5.90
2018-01-16T07:52:49.433Z,5.93
2018-01-16T07:53:49.414Z,5.86
2018-01-16T07:54:49.389Z,5.91
2018-01-16T07:55:49.370Z,5.78
2018-01-16T07:56:49.346Z,5.83
2018-01-16T07:57:49.325Z,5.81
2018-01-16T07:58:49.309Z,5.79
2018-01-16T07:59:49.281Z,5.83
2018-01-16T08:00:49.266Z,5.83
2018-01-16T08:01:49.241Z,5.81
2018-01-16T08:02:49.218Z,5.78
2018-01-16T08:03:49.205Z,5.85
2018-01-16T08:04:49.175Z,5.78
2018-01-16T08:05:49.152Z,5.83
2018-01-16T08:06:49.132Z,5.76
2018-01-16T08:07:49.115Z,5.79
2018-01-16T08:08:49.092Z,5.76
2018-01-16T08:09:49.071Z,5.81
2018-01-16T08:10:49.045Z,5.74
2018-01-16T08:11:49.026Z,5.76
2018-01-16T08:12:49.012Z,5.76
2018-01-16T08:13:48.986Z,5.81
2018-01-16T08:14:48.966Z,5.81
2018-01-16T08:15:48.940Z,5.74
2018-01-16T08:16:48.918Z,5.74
2018-01-16T08:17:48.905Z,5.71
2018-01-16T08:18:48.875Z,5.75
2018-01-16T08:19:48.854Z,5.71
2018-01-16T08:20:48.839Z,5.68
2018-01-16T08:21:48.815Z,5.72
2018-01-16T08:22:48.791Z,5.71
2018-01-16T08:23:48.771Z,5.61
2018-01-16T08:24:48.751Z,5.60
2018-01-16T08:25:48.726Z,5.60
2018-01-16T08:26:48.705Z,5.54
2018-01-16T08:27:48.684Z,5.57
2018-01-16T08:28:48.674Z,5.49
2018-01-16T08:29:48.646Z,5.33
2018-01-16T08:30:48.618Z,5.30
2018-01-16T08:31:48.602Z,5.07
2018-01-16T08:32:48.580Z,5.02
2018-01-16T08:33:48.555Z,4.94
2018-01-16T08:34:48.535Z,4.84
2018-01-16T08:35:48.513Z,4.75
2018-01-16T08:36:48.494Z,4.65
2018-01-16T08:37:48.471Z,4.44
2018-01-16T08:38:48.453Z,4.33
2018-01-16T08:39:48.425Z,4.30
2018-01-16T08:40:48.406Z,4.16
2018-01-16T08:41:48.386Z,4.23
2018-01-16T08:42:48.361Z,4.09
2018-01-16T08:43:48.342Z,4.08
2018-01-16T08:44:48.323Z,4.16
2018-01-16T08:45:48.299Z,4.08
2018-01-16T08:46:48.275Z,4.05
2018-01-16T08:47:48.251Z,3.97
2018-01-16T08:48:48.235Z,3.91
2018-01-16T08:49:48.211Z,3.94
2018-01-16T08:50:48.187Z,3.88
2018-01-16T08:51:48.170Z,3.80
2018-01-16T08:52:48.156Z,3.79
2018-01-16T08:53:48.124Z,3.78
2018-01-16T08:54:48.101Z,3.80
2018-01-16T08:55:48.077Z,3.75
2018-01-16T08:56:48.056Z,3.76
2018-01-16T08:57:48.036Z,3.75
2018-01-16T08:58:48.022Z,3.73
2018-01-16T08:59:47.995Z,3.73
2018-01-16T09:00:47.973Z,3.76
2018-01-16T09:01:47.953Z,3.76
2018-01-16T09:02:47.928Z,3.75
2018-01-16T09:03:47.925Z,3.75
2018-01-16T09:04:47.886Z,3.75
2018-01-16T09:05:47.863Z,3.76
2018-01-16T09:06:47.836Z,3.79
2018-01-16T09:07:47.815Z,3.73
2018-01-16T09:08:47.795Z,3.78
2018-01-16T09:09:47.773Z,3.72
2018-01-16T09:10:47.752Z,3.72
2018-01-16T09:11:47.725Z,3.62
2018-01-16T09:12:47.704Z,3.66
2018-01-16T09:13:47.689Z,3.70
2018-01-16T09:14:47.661Z,3.68
2018-01-16T09:15:47.649Z,3.66
2018-01-16T09:16:47.619Z,3.72
2018-01-16T09:17:47.596Z,3.65
2018-01-16T09:18:47.575Z,3.72
2018-01-16T09:19:47.559Z,3.72
2018-01-16T09:20:47.529Z,3.70
2018-01-16T09:21:47.535Z,3.60
2018-01-16T09:22:47.486Z,3.70
2018-01-16T09:23:47.462Z,3.65
2018-01-16T09:24:47.453Z,3.62
2018-01-16T09:25:47.418Z,3.58
2018-01-16T09:26:47.409Z,3.54
2018-01-16T09:27:47.376Z,3.52
2018-01-16T09:28:47.354Z,3.47
2018-01-16T09:29:47.332Z,3.42
2018-01-16T09:30:47.310Z,3.42
2018-01-16T09:31:47.284Z,3.42
2018-01-16T09:32:47.265Z,3.43
2018-01-16T09:33:47.244Z,3.32
2018-01-16T09:34:47.223Z,3.33
2018-01-16T09:35:47.210Z,3.28
2018-01-16T09:36:47.176Z,3.29
2018-01-16T09:37:47.157Z,3.13
2018-01-16T09:38:47.133Z,2.95
2018-01-16T09:39:47.106Z,2.87
2018-01-16T09:40:47.093Z,2.78
2018-01-16T09:41:47.061Z,2.78
2018-01-16T09:42:47.051Z,2.75
2018-01-16T09:43:47.023Z,2.75
2018-01-16T09:44:47.000Z,2.67
2018-01-16T09:45:46.974Z,2.71
2018-01-16T09:46:46.955Z,2.66
2018-01-16T09:47:46.925Z,2.74
2018-01-16T09:48:46.910Z,2.81
2018-01-16T09:49:46.886Z,2.81
2018-01-16T09:50:46.863Z,2.81
2018-01-16T09:51:46.846Z,2.79
2018-01-16T09:52:46.818Z,2.78
2018-01-16T09:53:46.794Z,2.79
2018-01-16T09:54:46.769Z,2.84
2018-01-16T09:55:46.751Z,2.78
2018-01-16T09:56:46.724Z,2.75
2018-01-16T09:57:46.701Z,2.72
2018-01-16T09:58:46.679Z,2.75
2018-01-16T09:59:46.656Z,2.57
2018-01-16T10:00:46.634Z,2.52
2018-01-16T10:01:46.615Z,2.38
2018-01-16T10:02:46.595Z,2.38
2018-01-16T10:03:46.566Z,2.18
2018-01-16T10:04:46.542Z,2.17
2018-01-16T10:05:46.523Z,2.12
2018-01-16T10:06:46.498Z,2.10
2018-01-16T10:07:46.499Z,2.06
2018-01-16T10:08:46.456Z,2.05
2018-01-16T10:09:46.436Z,2.17
2018-01-16T10:10:46.406Z,2.16
2018-01-16T10:11:46.386Z,2.12
2018-01-16T10:12:46.364Z,2.14
2018-01-16T10:13:46.340Z,2.17
2018-01-16T10:14:46.316Z,2.20
2018-01-16T10:15:46.296Z,2.17
2018-01-16T10:16:46.280Z,2.14
2018-01-16T10:17:46.252Z,2.24
2018-01-16T10:18:46.224Z,2.23
2018-01-16T10:19:46.208Z,2.18
2018-01-16T10:20:46.177Z,2.25
2018-01-16T10:21:46.158Z,2.21
2018-01-16T10:22:46.135Z,2.38
2018-01-16T10:23:46.115Z,2.36
2018-01-16T10:24:46.093Z,2.45
2018-01-16T10:25:46.069Z,2.42
2018-01-16T10:26:46.045Z,2.45
2018-01-16T10:27:46.021Z,2.45
2018-01-16T10:28:45.999Z,2.31
2018-01-16T10:29:45.976Z,2.46
2018-01-16T10:30:45.955Z,2.43
2018-01-16T10:31:45.982Z,2.49
2018-01-16T10:32:45.910Z,2.46
2018-01-16T10:33:45.889Z,2.53
2018-01-16T10:34:45.864Z,2.66
2018-01-16T10:35:45.884Z,2.75
2018-01-16T10:36:45.822Z,2.71
2018-01-16T10:37:45.797Z,2.67
2018-01-16T10:38:45.780Z,2.67
2018-01-16T10:39:45.752Z,2.78
2018-01-16T10:40:45.733Z,2.78
2018-01-16T10:41:45.713Z,2.67
2018-01-16T10:42:45.698Z,2.78
2018-01-16T10:43:45.667Z,2.74
2018-01-16T10:44:45.641Z,2.75
2018-01-16T10:45:45.626Z,2.77
2018-01-16T10:46:45.596Z,2.79
2018-01-16T10:47:45.577Z,2.85
2018-01-16T10:48:45.558Z,2.87
2018-01-16T10:49:45.526Z,2.95
2018-01-16T10:50:45.507Z,2.99
2018-01-16T10:51:45.484Z,2.90
2018-01-16T10:52:45.459Z,2.95
2018-01-16T10:53:45.436Z,3.05
2018-01-16T10:54:45.414Z,3.10
2018-01-16T10:55:45.398Z,3.20
2018-01-16T10:56:45.371Z,3.17
2018-01-16T10:57:45.349Z,3.24
2018-01-16T10:58:45.323Z,3.29
2018-01-16T10:59:45.301Z,3.32
2018-01-16T11:00:45.277Z,3.40
2018-01-16T11:01:45.256Z,3.47
2018-01-16T11:02:45.235Z,3.43
2018-01-16T11:03:45.215Z,3.51
2018-01-16T11:04:45.189Z,3.42
2018-01-16T11:05:45.178Z,3.45
2018-01-16T11:06:45.145Z,3.48
2018-01-16T11:07:45.125Z,3.47
2018-01-16T11:08:45.102Z,3.47
2018-01-16T11:09:45.078Z,3.58
2018-01-16T11:10:45.052Z,3.60
2018-01-16T11:11:45.030Z,3.73
2018-01-16T11:12:45.014Z,3.78
2018-01-16T11:13:44.996Z,3.70
2018-01-16T11:14:44.965Z,3.76
2018-01-16T11:15:44.943Z,3.86
2018-01-16T11:16:44.931Z,3.97
2018-01-16T11:17:44.901Z,3.88
2018-01-16T11:18:44.875Z,3.91
2018-01-16T11:19:44.858Z,3.98
2018-01-16T11:20:44.832Z,3.98
2018-01-16T11:21:44.809Z,3.84
2018-01-16T11:22:44.784Z,3.93
2018-01-16T11:23:44.769Z,3.94
2018-01-16T11:24:44.746Z,3.98
2018-01-16T11:25:44.721Z,3.90
2018-01-16T11:26:44.697Z,3.97
2018-01-16T11:27:44.676Z,3.96
2018-01-16T11:28:44.656Z,3.94
2018-01-16T11:29:44.629Z,3.97
2018-01-16T11:30:44.613Z,3.96
2018-01-16T11:31:44.588Z,3.84
2018-01-16T11:32:44.565Z,3.94
2018-01-16T11:33:44.548Z,3.94
2018-01-16T11:34:44.524Z,3.97
2018-01-16T11:35:44.495Z,3.98
2018-01-16T11:36:44.475Z,3.88
2018-01-16T11:37:44.456Z,3.91
2018-01-16T11:38:44.439Z,3.84
2018-01-16T11:39:44.410Z,3.93
2018-01-16T11:40:44.386Z,3.84
2018-01-16T11:41:44.362Z,3.84
2018-01-16T11:42:44.349Z,3.91
2018-01-16T11:43:44.316Z,3.87
2018-01-16T11:44:44.300Z,3.90
2018-01-16T11:45:44.278Z,3.93
2018-01-16T11:46:44.261Z,3.98
2018-01-16T11:47:44.229Z,4.04
2018-01-16T11:48:44.217Z,4.05
2018-01-16T11:49:44.190Z,4.06
2018-01-16T11:50:44.177Z,3.98
2018-01-16T11:51:44.142Z,4.05
2018-01-16T11:52:44.118Z,4.11
2018-01-16T11:53:44.097Z,4.20
2018-01-16T11:54:44.076Z,4.08
2018-01-16T11:55:44.054Z,4.14
2018-01-16T11:56:44.031Z,4.22
2018-01-16T11:57:44.020Z,4.14
2018-01-16T11:58:43.985Z,4.18
2018-01-16T11:59:43.965Z,4.09
2018-01-16T12:00:43.943Z,4.22
2018-01-16T12:01:43.924Z,4.09
2018-01-16T12:02:43.900Z,4.22
2018-01-16T12:03:43.877Z,4.24
2018-01-16T12:04:43.856Z,4.23
2018-01-16T12:05:43.833Z,4.27
2018-01-16T12:06:43.809Z,4.26
2018-01-16T12:07:43.785Z,4.15
2018-01-16T12:08:43.769Z,4.30
2018-01-16T12:09:43.753Z,4.24
2018-01-16T12:10:43.720Z,4.26
2018-01-16T12:11:43.715Z,4.27
2018-01-16T12:12:43.681Z,4.29
2018-01-16T12:13:43.655Z,4.36
2018-01-16T12:14:43.634Z,4.41
2018-01-16T12:15:43.614Z,4.48
2018-01-16T12:16:43.595Z,4.59
2018-01-16T12:17:43.571Z,4.65
2018-01-16T12:18:43.566Z,4.59
2018-01-16T12:19:43.523Z,4.72
2018-01-16T12:20:43.505Z,4.73
2018-01-16T12:21:43.484Z,4.72
2018-01-16T12:22:43.462Z,4.67
2018-01-16T12:23:43.435Z,4.72
2018-01-16T12:24:43.416Z,4.69
2018-01-16T12:25:43.395Z,4.77
2018-01-16T12:26:43.377Z,4.88
2018-01-16T12:27:43.351Z,4.75
2018-01-16T12:28:43.329Z,4.82
2018-01-16T12:29:43.314Z,4.65
2018-01-16T12:30:43.287Z,4.72
2018-01-16T12:31:43.266Z,4.73
2018-01-16T12:32:43.249Z,4.73
2018-01-16T12:33:43.219Z,4.82
2018-01-16T12:34:43.207Z,4.72
2018-01-16T12:35:43.185Z,4.85
2018-01-16T12:36:43.153Z,4.78
2018-01-16T12:37:43.137Z,4.96
2018-01-16T12:38:43.120Z,4.99
2018-01-16T12:39:43.143Z,4.97
2018-01-16T12:40:43.070Z,5.00
2018-01-16T12:41:43.047Z,5.03
2018-01-16T12:42:43.034Z,5.04
2018-01-16T12:43:43.000Z,5.07
2018-01-16T12:44:42.983Z,5.07
2018-01-16T12:45:42.960Z,5.07
2018-01-16T12:46:42.948Z,5.09
2018-01-16T12:47:42.916Z,5.18
2018-01-16T12:48:42.893Z,5.24
2018-01-16T12:49:42.873Z,5.21
2018-01-16T12:50:42.847Z,5.25
2018-01-16T12:51:42.825Z,5.27
2018-01-16T12:52:42.805Z,5.28
2018-01-16T12:53:42.786Z,5.31
2018-01-16T12:54:42.763Z,5.38
2018-01-16T12:55:42.752Z,5.36
2018-01-16T12:56:42.724Z,5.46
2018-01-16T12:57:42.699Z,5.51
2018-01-16T12:58:42.682Z,5.51
2018-01-16T12:59:42.655Z,5.60
2018-01-16T13:00:42.635Z,5.61
2018-01-16T13:01:42.611Z,5.74
2018-01-16T13:02:42.594Z,5.81
2018-01-16T13:03:42.565Z,5.83
2018-01-16T13:04:42.548Z,5.82
2018-01-16T13:05:42.524Z,5.79
2018-01-16T13:06:42.503Z,5.82
2018-01-16T13:07:42.482Z,5.78
2018-01-16T13:08:42.461Z,5.83
2018-01-16T13:09:42.435Z,5.78
2018-01-16T13:10:42.414Z,5.78
2018-01-16T13:11:42.401Z,5.91
2018-01-16T13:12:42.373Z,5.96
2018-01-16T13:13:42.356Z,6.03
2018-01-16T13:14:42.333Z,6.01
2018-01-16T13:15:42.305Z,6.04
2018-01-16T13:16:42.287Z,6.03
2018-01-16T13:17:42.267Z,5.99
2018-01-16T13:18:42.266Z,5.99